createdAt,value
2019-01-16T00:02:08.491Z,24.60
2019-01-16T00:04:55.687Z,24.60
2019-01-16T00:07:48.553Z,24.33
2019-01-16T00:10:47.213Z,24.80
2019-01-16T00:13:48.788Z,25.40
2019-01-16T00:16:36.611Z,25.23
2019-01-16T00:19:26.344Z,26.10
2019-01-16T00:22:22.171Z,27.13
2019-01-16T00:25:14.956Z,26.17
2019-01-16T00:28:11.031Z,25.63
2019-01-16T00:47:49.031Z,24.93
2019-01-16T00:50:37.185Z,24.50
2019-01-16T00:53:27.285Z,24.77
2019-01-16T00:56:07.871Z,24.73
2019-01-16T00:59:06.895Z,24.20
2019-01-16T01:01:56.506Z,23.83
2019-01-16T01:04:51.898Z,24.27
2019-01-16T01:07:53.549Z,22.90
2019-01-16T01:10:38.413Z,22.10
2019-01-16T01:13:23.905Z,23.77
2019-01-16T01:16:03.593Z,24.00
2019-01-16T01:18:52.002Z,24.10
2019-01-16T01:21:38.034Z,20.83
2019-01-16T01:24:26.485Z,22.07
2019-01-16T01:27:19.355Z,21.00
2019-01-16T01:29:59.712Z,21.07
2019-01-16T01:33:07.729Z,20.30
2019-01-16T01:35:59.622Z,21.23
2019-01-16T01:39:04.275Z,20.50
2019-01-16T01:42:11.982Z,18.23
2019-01-16T01:44:57.387Z,20.63
2019-01-16T01:47:37.665Z,19.17
2019-01-16T01:50:27.143Z,21.30
2019-01-16T01:53:31.783Z,19.93
2019-01-16T01:56:21.263Z,18.90
2019-01-16T01:59:11.927Z,20.87
2019-01-16T02:02:01.711Z,20.30
2019-01-16T02:04:50.402Z,21.50
2019-01-16T02:07:39.125Z,23.03
2019-01-16T02:10:44.630Z,21.97
2019-01-16T02:13:32.532Z,21.90
2019-01-16T02:16:14.490Z,22.13
2019-01-16T02:19:19.407Z,21.43
2019-01-16T02:22:11.657Z,21.60
2019-01-16T02:25:10.658Z,22.13
2019-01-16T02:27:59.458Z,22.00
2019-01-16T02:30:58.264Z,21.80
2019-01-16T02:33:51.046Z,22.67
2019-01-16T02:36:39.487Z,23.27
2019-01-16T02:39:14.835Z,22.03
2019-01-16T02:42:03.472Z,21.40
2019-01-16T02:45:08.202Z,23.17
2019-01-16T02:48:09.889Z,20.70
2019-01-16T02:50:57.325Z,22.63
2019-01-16T02:53:45.778Z,22.43
2019-01-16T02:56:28.001Z,23.10
2019-01-16T02:59:23.546Z,23.90
2019-01-16T03:02:01.692Z,22.27
2019-01-16T03:05:09.821Z,25.10
2019-01-16T03:08:02.269Z,25.67
2019-01-16T03:10:52.068Z,24.67
2019-01-16T03:13:42.783Z,24.80
2019-01-16T03:16:38.406Z,25.97
2019-01-16T03:19:28.132Z,25.60
2019-01-16T03:22:24.243Z,26.03
2019-01-16T03:25:10.754Z,25.93
2019-01-16T03:28:12.717Z,25.40
2019-01-16T03:30:58.507Z,26.10
2019-01-16T03:33:48.293Z,24.53
2019-01-16T03:36:38.127Z,24.33
2019-01-16T03:39:29.987Z,22.70
2019-01-16T03:42:22.479Z,24.10
2019-01-16T03:45:03.101Z,24.90
2019-01-16T03:47:59.667Z,23.73
2019-01-16T03:50:55.524Z,24.30
2019-01-16T03:53:43.935Z,23.37
2019-01-16T03:56:45.715Z,24.90
2019-01-16T03:59:28.347Z,23.60
2019-01-16T04:02:22.962Z,24.30
2019-01-16T04:05:12.689Z,24.47
2019-01-16T04:08:01.077Z,23.57
2019-01-16T04:11:09.370Z,21.50
2019-01-16T04:14:05.215Z,21.20
2019-01-16T04:16:54.947Z,22.30
2019-01-16T04:19:49.672Z,21.73
2019-01-16T04:22:42.181Z,22.60
2019-01-16T04:25:50.128Z,22.23
2019-01-16T04:28:39.939Z,21.40
2019-01-16T04:31:28.393Z,21.50
2019-01-16T04:34:16.557Z,21.67
2019-01-16T04:37:12.823Z,20.93
2019-01-16T04:40:20.868Z,22.83
2019-01-16T04:43:03.587Z,22.63
2019-01-16T04:45:51.939Z,25.87
2019-01-16T04:48:40.355Z,21.50
2019-01-16T04:51:21.918Z,20.70
2019-01-16T04:54:27.329Z,24.27
2019-01-16T04:57:15.518Z,24.33
2019-01-16T05:00:03.538Z,22.40
2019-01-16T05:03:11.375Z,24.37
2019-01-16T05:06:09.519Z,22.17
2019-01-16T05:09:08.013Z,23.40
2019-01-16T05:11:57.799Z,23.60
2019-01-16T05:14:35.491Z,25.00
2019-01-16T05:17:40.500Z,24.70
2019-01-16T05:20:28.679Z,24.00
2019-01-16T05:23:30.895Z,23.87
2019-01-16T05:26:15.794Z,23.23
2019-01-16T05:29:08.644Z,24.43
2019-01-16T05:31:52.640Z,21.77
2019-01-16T05:34:44.460Z,23.00
2019-01-16T05:37:46.035Z,21.77
2019-01-16T05:40:38.543Z,23.43
2019-01-16T05:43:43.542Z,21.47
2019-01-16T05:46:33.610Z,21.27
2019-01-16T05:49:29.424Z,21.30
2019-01-16T05:52:17.966Z,21.23
2019-01-16T05:55:07.703Z,19.30
2019-01-16T05:57:55.919Z,20.07
2019-01-16T06:01:00.615Z,19.60
2019-01-16T06:03:59.392Z,20.07
2019-01-16T06:06:58.215Z,17.83
2019-01-16T06:09:47.326Z,18.37
2019-01-16T06:12:47.818Z,19.50
2019-01-16T06:15:40.620Z,17.67
2019-01-16T06:18:28.822Z,17.97
2019-01-16T06:21:33.925Z,18.93
2019-01-16T06:24:41.991Z,17.83
2019-01-16T06:27:28.591Z,19.70
2019-01-16T06:30:19.581Z,17.93
2019-01-16T06:36:28.318Z,18.73
2019-01-16T06:39:30.158Z,18.20
2019-01-16T06:42:15.691Z,17.30
2019-01-16T06:45:17.662Z,17.47
2019-01-16T06:48:21.772Z,16.93
2019-01-16T06:51:13.822Z,18.30
2019-01-16T06:54:03.953Z,18.20
2019-01-16T06:56:53.711Z,18.27
2019-01-16T06:59:35.502Z,18.13
2019-01-16T07:02:23.825Z,16.03
2019-01-16T07:05:12.523Z,18.10
2019-01-16T07:08:02.346Z,17.90
2019-01-16T07:10:51.097Z,18.50
2019-01-16T07:13:46.777Z,17.30
2019-01-16T07:16:36.794Z,16.50
2019-01-16T07:19:25.142Z,18.03
2019-01-16T07:22:08.777Z,18.27
2019-01-16T07:24:57.510Z,18.40
2019-01-16T07:27:39.723Z,18.40
2019-01-16T07:30:34.803Z,17.97
2019-01-16T07:33:23.493Z,18.27
2019-01-16T07:36:26.484Z,17.30
2019-01-16T07:39:28.423Z,16.90
2019-01-16T07:42:24.248Z,16.57
2019-01-16T07:45:13.985Z,17.30
2019-01-16T07:48:09.783Z,16.80
2019-01-16T07:51:02.276Z,17.40
2019-01-16T07:53:40.342Z,17.73
2019-01-16T07:56:34.358Z,17.43
2019-01-16T07:59:25.512Z,16.77
2019-01-16T08:02:14.675Z,15.90
2019-01-16T08:05:03.423Z,17.30
2019-01-16T08:07:53.145Z,16.70
2019-01-16T08:11:01.048Z,16.10
2019-01-16T08:14:05.414Z,16.37
2019-01-16T08:16:58.147Z,16.77
2019-01-16T08:19:50.891Z,15.47
2019-01-16T08:22:40.677Z,15.57
2019-01-16T08:25:36.236Z,14.97
2019-01-16T08:28:38.197Z,16.23
2019-01-16T08:31:27.677Z,16.03
2019-01-16T08:34:17.248Z,15.67
2019-01-16T08:37:01.297Z,13.80
2019-01-16T08:39:53.854Z,14.50
2019-01-16T08:42:42.113Z,13.77
2019-01-16T08:45:30.484Z,12.80
2019-01-16T08:48:32.203Z,14.43
2019-01-16T08:51:33.908Z,14.00
2019-01-16T08:54:22.619Z,13.73
2019-01-16T08:57:05.185Z,12.80
2019-01-16T09:00:01.016Z,12.30
2019-01-16T09:03:03.052Z,11.77
2019-01-16T09:05:56.909Z,10.60
2019-01-16T09:08:45.477Z,11.00
2019-01-16T09:11:38.323Z,11.27
2019-01-16T09:14:26.662Z,12.00
2019-01-16T09:17:34.995Z,12.10
2019-01-16T09:20:39.861Z,11.47
2019-01-16T09:23:25.171Z,11.80
2019-01-16T09:26:07.331Z,12.07
2019-01-16T09:29:02.922Z,10.30
2019-01-16T09:31:42.890Z,10.07
2019-01-16T09:34:31.608Z,10.40
2019-01-16T09:37:20.652Z,10.10
2019-01-16T09:40:19.810Z,9.80
2019-01-16T09:43:17.544Z,10.17
2019-01-16T09:46:16.434Z,10.10
2019-01-16T09:49:04.932Z,10.17
2019-01-16T09:51:53.443Z,9.20
2019-01-16T09:55:00.027Z,9.63
2019-01-16T09:58:05.016Z,10.53
2019-01-16T10:01:06.507Z,10.30
2019-01-16T10:03:56.267Z,10.20
2019-01-16T10:06:44.270Z,9.40
2019-01-16T10:09:37.931Z,10.40
2019-01-16T10:12:27.660Z,9.60
2019-01-16T10:15:26.518Z,9.67
2019-01-16T10:18:25.486Z,9.47
2019-01-16T10:21:21.082Z,9.20
2019-01-16T10:24:03.009Z,8.50
2019-01-16T10:26:51.269Z,7.97
2019-01-16T10:29:40.617Z,8.50
2019-01-16T10:32:28.967Z,9.10
2019-01-16T10:35:17.126Z,7.47
2019-01-16T10:38:10.527Z,8.70
2019-01-16T10:41:06.398Z,8.37
2019-01-16T10:44:00.666Z,8.67
2019-01-16T10:46:49.023Z,7.90
2019-01-16T10:49:56.967Z,7.67
2019-01-16T10:52:43.659Z,7.90
2019-01-16T10:55:30.126Z,7.97
2019-01-16T10:58:09.962Z,7.70
2019-01-16T11:01:00.321Z,7.57
2019-01-16T11:03:48.711Z,6.97
2019-01-16T11:06:49.101Z,7.80
2019-01-16T11:09:50.974Z,7.80
2019-01-16T11:12:38.342Z,7.37
2019-01-16T11:15:41.538Z,7.50
2019-01-16T11:18:29.928Z,6.90
2019-01-16T11:21:19.646Z,7.20
2019-01-16T11:24:04.036Z,6.23
2019-01-16T11:26:52.283Z,5.80
2019-01-16T11:29:57.017Z,6.33
2019-01-16T11:32:46.828Z,6.90
2019-01-16T11:35:42.483Z,5.10
2019-01-16T11:38:38.088Z,5.10
2019-01-16T11:41:24.254Z,5.40
2019-01-16T11:44:26.259Z,5.60
2019-01-16T11:47:14.851Z,5.00
2019-01-16T11:50:10.964Z,5.50
2019-01-16T11:53:00.198Z,5.10
2019-01-16T11:56:05.194Z,5.20
2019-01-16T11:58:44.480Z,5.37
2019-01-16T12:01:34.299Z,5.23
2019-01-16T12:04:36.631Z,5.40
2019-01-16T12:07:24.064Z,4.97
2019-01-16T12:10:17.081Z,8.00
2019-01-16T12:13:00.874Z,6.00
2019-01-16T12:16:06.519Z,6.13
2019-01-16T12:18:54.730Z,5.90
2019-01-16T12:21:42.946Z,4.60
2019-01-16T12:24:38.555Z,5.20
2019-01-16T12:27:27.041Z,5.67
2019-01-16T12:30:12.714Z,5.67
2019-01-16T12:33:05.458Z,4.97
2019-01-16T12:35:53.740Z,5.50
2019-01-16T12:38:32.305Z,4.87
2019-01-16T12:41:17.224Z,5.50
2019-01-16T12:44:05.674Z,5.20
2019-01-16T12:47:04.986Z,5.60
2019-01-16T12:49:47.776Z,5.30
2019-01-16T12:52:36.255Z,4.90
2019-01-16T12:55:39.284Z,5.33
2019-01-16T12:58:35.315Z,5.57
2019-01-16T13:01:37.395Z,5.03
2019-01-16T13:04:32.404Z,5.50
2019-01-16T13:07:14.907Z,5.13
2019-01-16T13:10:10.574Z,5.80
2019-01-16T13:13:04.666Z,4.50
2019-01-16T13:15:57.404Z,4.80
2019-01-16T13:18:45.558Z,4.77
2019-01-16T13:21:39.822Z,4.17
2019-01-16T13:24:34.602Z,4.47
2019-01-16T13:27:24.656Z,4.50
2019-01-16T13:30:17.324Z,4.20
2019-01-16T13:33:09.870Z,4.03
2019-01-16T13:36:17.537Z,3.60
2019-01-16T13:39:07.339Z,4.37
2019-01-16T13:42:06.269Z,4.40
2019-01-16T13:44:54.560Z,5.60
2019-01-16T13:47:47.382Z,3.60
2019-01-16T13:50:35.879Z,3.30
2019-01-16T13:53:24.885Z,3.53
2019-01-16T13:56:33.520Z,3.60
2019-01-16T13:59:18.256Z,4.93
2019-01-16T14:02:05.535Z,4.83
2019-01-16T14:05:01.391Z,3.60
2019-01-16T14:07:49.585Z,4.00
2019-01-16T14:10:37.989Z,5.30
2019-01-16T14:13:30.784Z,5.07
2019-01-16T14:16:38.455Z,4.40
2019-01-16T14:19:33.786Z,5.20
2019-01-16T14:22:32.009Z,5.60
2019-01-16T14:25:17.174Z,6.53
2019-01-16T14:28:04.882Z,5.50
2019-01-16T14:31:06.446Z,5.37
2019-01-16T14:33:59.023Z,5.00
2019-01-16T14:37:06.873Z,4.50
2019-01-16T14:39:49.133Z,4.50
2019-01-16T14:42:41.742Z,5.40
2019-01-16T14:45:30.093Z,4.53
2019-01-16T14:48:22.744Z,4.40
2019-01-16T14:51:00.062Z,5.30
2019-01-16T14:54:04.932Z,4.43
2019-01-16T14:56:54.721Z,4.70
2019-01-16T14:59:59.612Z,5.17
2019-01-16T15:02:48.072Z,6.40
2019-01-16T15:05:36.483Z,5.20
2019-01-16T15:08:20.313Z,5.40
2019-01-16T15:11:10.158Z,5.37
2019-01-16T15:14:02.939Z,5.37
2019-01-16T15:16:51.383Z,6.10
2019-01-16T15:19:39.588Z,5.73
2019-01-16T15:22:32.394Z,5.80
2019-01-16T15:25:11.886Z,6.13
2019-01-16T15:28:07.386Z,5.67
2019-01-16T15:30:55.920Z,5.57
2019-01-16T15:33:48.457Z,5.70
2019-01-16T15:36:44.324Z,5.33
2019-01-16T15:39:32.895Z,6.07
2019-01-16T15:42:38.210Z,6.53
2019-01-16T15:45:28.060Z,5.60
2019-01-16T15:48:18.121Z,6.13
2019-01-16T15:51:06.306Z,6.10
2019-01-16T15:53:58.914Z,5.90
2019-01-16T15:57:00.587Z,6.40
2019-01-16T15:59:49.031Z,6.37
2019-01-16T16:02:37.150Z,7.40
2019-01-16T16:05:26.142Z,6.40
2019-01-16T16:08:24.026Z,6.13
2019-01-16T16:11:12.469Z,6.40
2019-01-16T16:13:58.384Z,6.37
2019-01-16T16:16:41.419Z,6.60
2019-01-16T16:19:40.150Z,6.30
2019-01-16T16:22:32.962Z,6.03
2019-01-16T16:25:21.119Z,6.67
2019-01-16T16:28:09.227Z,6.80
2019-01-16T16:31:01.874Z,6.40
2019-01-16T16:33:44.405Z,6.50
2019-01-16T16:36:32.822Z,6.53
2019-01-16T16:39:28.532Z,9.73
2019-01-16T16:42:14.172Z,9.60
2019-01-16T16:45:09.707Z,7.30
2019-01-16T16:47:57.869Z,6.77
2019-01-16T16:50:53.691Z,6.00
2019-01-16T16:53:46.238Z,6.10
2019-01-16T16:56:36.337Z,6.17
2019-01-16T16:59:24.781Z,6.00
2019-01-16T17:02:25.366Z,6.80
2019-01-16T17:05:24.260Z,6.30
2019-01-16T17:08:07.134Z,5.97
2019-01-16T17:10:56.832Z,6.20
2019-01-16T17:13:48.883Z,7.10
2019-01-16T17:16:41.099Z,6.20
2019-01-16T17:19:39.402Z,6.00
2019-01-16T17:22:38.347Z,5.53
2019-01-16T17:25:47.146Z,5.70
2019-01-16T17:28:35.355Z,5.70
2019-01-16T17:31:40.629Z,5.97
2019-01-16T17:34:41.675Z,6.03
2019-01-16T17:37:30.301Z,7.70
2019-01-16T17:40:09.053Z,7.10
2019-01-16T17:43:01.876Z,7.03
2019-01-16T17:45:54.854Z,6.13
2019-01-16T17:48:44.578Z,8.70
2019-01-16T17:51:32.732Z,7.00
2019-01-16T17:54:17.912Z,8.37
2019-01-16T17:57:08.083Z,7.43
2019-01-16T18:00:06.923Z,7.80
2019-01-16T18:03:08.919Z,9.53
2019-01-16T18:06:01.745Z,8.70
2019-01-16T18:08:43.411Z,9.07
2019-01-16T18:11:37.905Z,8.73
2019-01-16T18:14:26.053Z,8.70
2019-01-16T18:17:21.604Z,8.90
2019-01-16T18:20:06.241Z,7.83
2019-01-16T18:22:50.640Z,9.23
2019-01-16T18:25:29.587Z,8.40
2019-01-16T18:28:17.878Z,8.43
2019-01-16T18:31:16.886Z,7.83
2019-01-16T18:34:05.265Z,7.80
2019-01-16T18:36:43.377Z,7.37
2019-01-16T18:39:33.095Z,7.53
2019-01-16T18:42:21.652Z,7.67
2019-01-16T18:44:59.003Z,8.20
2019-01-16T18:47:51.943Z,7.20
2019-01-16T18:50:44.550Z,7.23
2019-01-16T18:53:33.617Z,6.13
2019-01-16T18:56:27.772Z,7.30
2019-01-16T18:59:27.160Z,6.20
2019-01-16T19:02:15.605Z,6.63
2019-01-16T19:05:03.745Z,6.73
2019-01-16T19:07:53.280Z,6.63
2019-01-16T19:10:42.195Z,6.53
2019-01-16T19:13:31.180Z,5.70
2019-01-16T19:16:32.855Z,6.33
2019-01-16T19:19:22.588Z,4.93
2019-01-16T19:22:04.648Z,5.60
2019-01-16T19:24:57.783Z,5.93
2019-01-16T19:27:53.591Z,5.70
2019-01-16T19:30:49.412Z,6.43
2019-01-16T19:33:29.823Z,6.40
2019-01-16T19:36:35.119Z,5.60
2019-01-16T19:39:33.829Z,7.60
2019-01-16T19:42:23.935Z,6.83
2019-01-16T19:45:25.595Z,6.20
2019-01-16T19:48:15.609Z,6.77
2019-01-16T19:51:06.264Z,6.33
2019-01-16T19:53:56.488Z,5.73
2019-01-16T19:56:40.497Z,5.70
2019-01-16T19:59:28.505Z,6.07
2019-01-16T20:02:18.152Z,6.03
2019-01-16T20:05:09.635Z,6.60
2019-01-16T20:07:59.688Z,6.47
2019-01-16T20:10:57.631Z,5.33
2019-01-16T20:13:40.013Z,6.30
2019-01-16T20:16:32.871Z,6.73
2019-01-16T20:19:21.002Z,6.70
2019-01-16T20:22:25.745Z,6.87
2019-01-16T20:25:07.870Z,5.60
2019-01-16T20:27:58.237Z,5.10
2019-01-16T20:30:40.146Z,5.83
2019-01-16T20:33:32.999Z,5.33
2019-01-16T20:36:18.478Z,5.47
2019-01-16T20:39:08.557Z,5.57
2019-01-16T20:41:58.699Z,6.27
2019-01-16T20:44:54.874Z,5.50
2019-01-16T20:47:44.661Z,5.70
2019-01-16T20:50:32.198Z,5.80
2019-01-16T20:53:31.221Z,5.80
2019-01-16T20:56:36.139Z,5.50
2019-01-16T20:59:34.838Z,5.23
2019-01-16T21:02:27.887Z,5.37
2019-01-16T21:05:20.776Z,5.10
2019-01-16T21:08:10.650Z,5.07
2019-01-16T21:11:06.679Z,5.03
2019-01-16T21:14:05.342Z,4.60
2019-01-16T21:16:57.976Z,5.07
2019-01-16T21:19:46.226Z,4.57
2019-01-16T21:22:35.837Z,6.07
2019-01-16T21:25:26.834Z,5.33
2019-01-16T21:28:31.748Z,5.07
2019-01-16T21:31:30.240Z,4.80
2019-01-16T21:34:19.439Z,4.73
2019-01-16T21:37:12.629Z,4.80
2019-01-16T21:40:01.357Z,4.63
2019-01-16T21:42:51.165Z,4.80
2019-01-16T21:45:53.148Z,4.83
2019-01-16T21:48:41.890Z,4.90
2019-01-16T21:51:30.347Z,5.20
2019-01-16T21:54:38.183Z,4.97
2019-01-16T21:57:43.204Z,4.93
2019-01-16T22:00:33.682Z,5.17
2019-01-16T22:03:41.712Z,4.83
2019-01-16T22:06:40.664Z,5.30
2019-01-16T22:09:28.825Z,5.17
2019-01-16T22:12:17.223Z,5.13
2019-01-16T22:15:19.233Z,4.87
2019-01-16T22:18:12.064Z,5.40
2019-01-16T22:20:54.995Z,6.00
2019-01-16T22:23:44.748Z,5.57
2019-01-16T22:26:37.685Z,5.67
2019-01-16T22:29:27.427Z,6.00
2019-01-16T22:32:15.813Z,5.70
2019-01-16T22:35:11.940Z,5.00
2019-01-16T22:38:00.577Z,5.00
2019-01-16T22:40:53.786Z,6.07
2019-01-16T22:43:49.707Z,5.97
2019-01-16T22:46:42.533Z,5.80
2019-01-16T22:49:30.925Z,6.23
2019-01-16T22:52:32.346Z,6.07
2019-01-16T22:55:24.858Z,6.90
2019-01-16T22:58:21.922Z,6.53
2019-01-16T23:01:19.672Z,6.13
2019-01-16T23:04:08.102Z,6.17
2019-01-16T23:07:00.913Z,6.50
2019-01-16T23:10:05.824Z,5.77
2019-01-16T23:13:04.507Z,6.90
2019-01-16T23:16:03.860Z,6.37
2019-01-16T23:19:07.084Z,5.90
2019-01-16T23:22:09.002Z,5.70
2019-01-16T23:24:57.467Z,6.23
2019-01-16T23:28:02.510Z,6.03
2019-01-16T23:30:58.421Z,6.93
2019-01-16T23:34:00.288Z,6.00
2019-01-16T23:36:48.450Z,6.07
2019-01-16T23:39:44.256Z,7.07
2019-01-16T23:42:39.893Z,7.40
2019-01-16T23:45:28.533Z,8.37
2019-01-16T23:48:27.491Z,8.37
2019-01-16T23:51:13.827Z,7.60
2019-01-16T23:54:21.557Z,8.53
2019-01-16T23:57:17.293Z,8.90
